createdAt,value
2017-11-14T00:00:22.546Z,9.60
2017-11-14T00:02:51.400Z,9.73
2017-11-14T00:05:20.434Z,9.07
2017-11-14T00:07:49.285Z,9.70
2017-11-14T00:10:18.159Z,10.83
2017-11-14T00:12:47.058Z,8.97
2017-11-14T00:15:15.908Z,9.47
2017-11-14T00:17:44.764Z,8.03
2017-11-14T00:20:13.628Z,9.90
2017-11-14T00:22:42.514Z,9.50
2017-11-14T00:25:11.380Z,8.77
2017-11-14T00:27:40.317Z,10.43
2017-11-14T00:30:09.190Z,8.80
2017-11-14T00:32:38.057Z,9.50
2017-11-14T00:35:06.937Z,11.00
2017-11-14T00:37:35.808Z,9.87
2017-11-14T00:40:04.782Z,9.80
2017-11-14T00:42:33.627Z,9.67
2017-11-14T00:45:02.520Z,8.93
2017-11-14T00:47:31.426Z,10.37
2017-11-14T00:50:00.303Z,9.77
2017-11-14T00:52:29.201Z,10.00
2017-11-14T00:54:58.060Z,11.70
2017-11-14T00:57:26.952Z,10.43
2017-11-14T00:59:55.830Z,10.83
2017-11-14T01:02:25.792Z,10.77
2017-11-14T01:04:54.667Z,11.47
2017-11-14T01:07:23.545Z,10.23
2017-11-14T01:09:52.425Z,10.10
2017-11-14T01:12:21.368Z,10.30
2017-11-14T01:14:50.215Z,9.80
2017-11-14T01:17:19.130Z,10.30
2017-11-14T01:19:48.003Z,9.87
2017-11-14T01:22:16.868Z,10.40
2017-11-14T01:24:45.748Z,10.67
2017-11-14T01:27:14.607Z,9.53
2017-11-14T01:29:43.502Z,10.60
2017-11-14T01:32:12.386Z,9.30
2017-11-14T01:34:41.271Z,10.50
2017-11-14T01:37:10.115Z,10.13
2017-11-14T01:39:39.028Z,11.10
2017-11-14T01:42:07.901Z,10.23
2017-11-14T01:44:36.765Z,10.60
2017-11-14T01:47:05.654Z,10.97
2017-11-14T01:49:34.523Z,10.90
2017-11-14T01:52:03.406Z,11.77
2017-11-14T01:54:32.266Z,10.83
2017-11-14T01:57:01.135Z,10.03
2017-11-14T01:59:30.020Z,11.03
2017-11-14T02:01:58.924Z,11.23
2017-11-14T02:04:27.775Z,9.50
2017-11-14T02:06:56.691Z,9.77
2017-11-14T02:09:25.589Z,10.00
2017-11-14T02:11:54.456Z,10.20
2017-11-14T02:14:23.340Z,9.20
2017-11-14T02:16:52.208Z,11.50
2017-11-14T02:19:21.092Z,10.70
2017-11-14T02:21:49.960Z,9.80
2017-11-14T02:24:18.838Z,10.57
2017-11-14T02:26:53.632Z,11.70
2017-11-14T02:29:22.505Z,10.40
2017-11-14T02:31:51.388Z,10.03
2017-11-14T02:34:20.259Z,12.07
2017-11-14T02:36:49.116Z,10.20
2017-11-14T02:39:17.987Z,10.80
2017-11-14T02:41:46.833Z,11.70
2017-11-14T02:44:15.806Z,10.93
2017-11-14T02:46:44.670Z,10.73
2017-11-14T02:49:13.527Z,11.10
2017-11-14T02:51:42.396Z,10.67
2017-11-14T02:54:11.265Z,11.37
2017-11-14T02:56:40.167Z,11.73
2017-11-14T02:59:09.046Z,11.20
2017-11-14T03:01:37.932Z,12.10
2017-11-14T03:04:06.803Z,11.23
2017-11-14T03:06:35.678Z,10.07
2017-11-14T03:09:04.540Z,11.13
2017-11-14T03:11:33.691Z,11.10
2017-11-14T03:14:02.572Z,12.13
2017-11-14T03:16:31.425Z,11.20
2017-11-14T03:19:00.304Z,11.97
2017-11-14T03:21:29.194Z,11.37
2017-11-14T03:23:58.056Z,11.50
2017-11-14T03:26:26.919Z,11.40
2017-11-14T03:28:55.819Z,12.63
2017-11-14T03:31:24.694Z,12.00
2017-11-14T03:33:53.607Z,10.20
2017-11-14T03:36:22.451Z,11.70
2017-11-14T03:38:51.336Z,11.30
2017-11-14T03:41:20.204Z,10.33
2017-11-14T03:43:49.103Z,11.20
2017-11-14T03:46:17.959Z,9.50
2017-11-14T03:48:46.825Z,10.10
2017-11-14T03:51:15.718Z,10.73
2017-11-14T03:53:44.588Z,10.40
2017-11-14T03:56:13.481Z,10.33
2017-11-14T03:58:42.337Z,9.70
2017-11-14T04:01:11.237Z,10.57
2017-11-14T04:03:40.088Z,10.43
2017-11-14T04:06:08.960Z,10.03
2017-11-14T04:08:37.851Z,10.43
2017-11-14T04:11:06.725Z,10.10
2017-11-14T04:13:35.657Z,9.27
2017-11-14T04:16:04.513Z,11.13
2017-11-14T04:18:33.408Z,10.20
2017-11-14T04:21:02.283Z,10.83
2017-11-14T04:23:31.135Z,11.47
2017-11-14T04:26:00.000Z,11.17
2017-11-14T04:28:28.865Z,11.60
2017-11-14T04:30:57.739Z,9.80
2017-11-14T04:33:26.587Z,10.97
2017-11-14T04:35:55.477Z,10.13
2017-11-14T04:38:24.358Z,11.47
2017-11-14T04:40:53.373Z,11.03
2017-11-14T04:43:22.241Z,11.47
2017-11-14T04:45:51.105Z,10.87
2017-11-14T04:48:19.980Z,11.20
2017-11-14T04:50:48.854Z,12.07
2017-11-14T04:53:17.803Z,11.60
2017-11-14T04:55:46.666Z,11.30
2017-11-14T04:58:15.551Z,10.40
2017-11-14T05:00:44.401Z,12.40
2017-11-14T05:03:13.324Z,13.40
2017-11-14T05:05:42.216Z,11.30
2017-11-14T05:08:11.092Z,12.27
2017-11-14T05:10:39.968Z,11.33
2017-11-14T05:13:08.820Z,10.50
2017-11-14T05:15:37.749Z,12.40
2017-11-14T05:18:06.614Z,12.27
2017-11-14T05:20:35.510Z,11.50
2017-11-14T05:23:04.371Z,9.97
2017-11-14T05:25:33.292Z,11.20
2017-11-14T05:28:02.155Z,10.80
2017-11-14T05:30:31.026Z,10.50
2017-11-14T05:32:59.917Z,12.80
2017-11-14T05:35:28.772Z,11.40
2017-11-14T05:37:57.640Z,11.20
2017-11-14T05:40:26.479Z,10.80
2017-11-14T05:42:55.356Z,10.43
2017-11-14T05:45:24.265Z,11.77
2017-11-14T05:47:53.147Z,11.07
2017-11-14T05:50:22.025Z,12.20
2017-11-14T05:52:50.885Z,11.80
2017-11-14T05:55:19.779Z,11.73
2017-11-14T05:57:48.635Z,12.80
2017-11-14T06:00:17.520Z,10.77
2017-11-14T06:02:46.401Z,12.23
2017-11-14T06:05:15.289Z,11.50
2017-11-14T06:07:44.163Z,11.40
2017-11-14T06:10:13.235Z,10.60
2017-11-14T06:12:42.113Z,11.30
2017-11-14T06:15:10.976Z,10.03
2017-11-14T06:17:39.846Z,11.17
2017-11-14T06:20:08.712Z,9.80
2017-11-14T06:22:37.603Z,10.63
2017-11-14T06:25:06.471Z,10.40
2017-11-14T06:27:35.392Z,11.47
2017-11-14T06:30:04.251Z,11.90
2017-11-14T06:32:33.124Z,11.17
2017-11-14T06:35:01.981Z,13.03
2017-11-14T06:37:30.869Z,11.27
2017-11-14T06:39:59.850Z,10.73
2017-11-14T06:42:28.779Z,11.33
2017-11-14T06:44:57.652Z,11.93
2017-11-14T06:47:26.603Z,12.73
2017-11-14T06:49:55.476Z,12.63
2017-11-14T06:52:24.353Z,13.00
2017-11-14T06:54:53.244Z,13.47
2017-11-14T06:57:22.137Z,12.80
2017-11-14T06:59:51.020Z,11.37
2017-11-14T07:02:19.989Z,12.50
2017-11-14T07:04:48.921Z,12.37
2017-11-14T07:07:17.792Z,13.83
2017-11-14T07:09:46.680Z,13.97
2017-11-14T07:12:15.573Z,13.37
2017-11-14T07:14:44.539Z,13.80
2017-11-14T07:17:13.411Z,13.80
2017-11-14T07:19:42.290Z,14.67
2017-11-14T07:22:11.166Z,12.20
2017-11-14T07:24:40.046Z,12.93
2017-11-14T07:27:08.941Z,13.65
2017-11-14T07:29:37.837Z,12.33
2017-11-14T07:32:06.979Z,12.37
2017-11-14T07:34:35.883Z,12.80
2017-11-14T07:37:04.969Z,15.07
2017-11-14T07:39:33.868Z,13.43
2017-11-14T07:42:02.836Z,13.17
2017-11-14T07:44:31.801Z,12.13
2017-11-14T07:47:00.684Z,12.90
2017-11-14T07:49:30.730Z,12.33
2017-11-14T07:51:59.660Z,12.00
2017-11-14T07:54:28.541Z,11.50
2017-11-14T07:56:57.544Z,11.17
2017-11-14T07:59:27.282Z,11.70
2017-11-14T08:01:56.174Z,13.07
2017-11-14T08:04:25.047Z,14.20
2017-11-14T08:06:53.929Z,12.73
2017-11-14T08:09:22.885Z,13.17
2017-11-14T08:11:51.779Z,11.57
2017-11-14T08:14:20.672Z,13.50
2017-11-14T08:16:49.595Z,14.43
2017-11-14T08:19:18.525Z,14.23
2017-11-14T08:21:47.580Z,12.90
2017-11-14T08:24:16.465Z,14.30
2017-11-14T08:26:45.359Z,11.70
2017-11-14T08:29:14.273Z,12.77
2017-11-14T08:31:43.158Z,13.97
2017-11-14T08:34:12.051Z,17.90
2017-11-14T08:36:41.067Z,14.17
2017-11-14T08:39:10.048Z,14.40
2017-11-14T08:41:39.008Z,12.53
2017-11-14T08:44:07.925Z,14.63
2017-11-14T08:46:36.787Z,14.87
2017-11-14T08:49:05.663Z,23.90
2017-11-14T08:51:34.538Z,16.90
2017-11-14T08:54:03.394Z,12.43
2017-11-14T08:56:32.305Z,13.17
2017-11-14T08:59:01.168Z,12.90
2017-11-14T09:01:30.045Z,13.23
2017-11-14T09:03:59.595Z,13.53
2017-11-14T09:06:28.576Z,11.83
2017-11-14T09:08:57.445Z,11.30
2017-11-14T09:11:26.298Z,12.70
2017-11-14T09:13:55.196Z,14.13
2017-11-14T09:16:24.080Z,12.57
2017-11-14T09:18:52.975Z,12.07
2017-11-14T09:21:21.835Z,13.30
2017-11-14T09:23:50.725Z,17.33
2017-11-14T09:26:19.593Z,12.23
2017-11-14T09:28:48.514Z,12.80
2017-11-14T09:31:17.397Z,13.83
2017-11-14T09:33:46.279Z,12.63
2017-11-14T09:36:15.180Z,12.03
2017-11-14T09:38:44.058Z,13.00
2017-11-14T09:41:12.940Z,11.43
2017-11-14T09:43:41.811Z,11.57
2017-11-14T09:46:10.688Z,10.40
2017-11-14T09:48:39.547Z,14.00
2017-11-14T09:51:08.457Z,13.97
2017-11-14T09:53:37.322Z,15.23
2017-11-14T09:56:06.203Z,13.60
2017-11-14T09:58:35.055Z,14.97
2017-11-14T10:01:03.965Z,13.00
2017-11-14T10:03:32.859Z,14.90
2017-11-14T10:06:01.756Z,14.20
2017-11-14T10:08:30.640Z,15.67
2017-11-14T10:10:59.532Z,14.73
2017-11-14T10:13:28.407Z,16.23
2017-11-14T10:15:57.457Z,15.10
2017-11-14T10:18:26.328Z,14.70
2017-11-14T10:20:55.203Z,14.60
2017-11-14T10:23:24.088Z,13.50
2017-11-14T10:25:52.964Z,13.43
2017-11-14T10:28:21.871Z,15.40
2017-11-14T10:30:50.825Z,13.53
2017-11-14T10:33:19.743Z,16.57
2017-11-14T10:35:48.616Z,16.57
2017-11-14T10:38:17.491Z,17.97
2017-11-14T10:40:46.371Z,18.57
2017-11-14T10:43:15.248Z,14.73
2017-11-14T10:45:44.119Z,15.93
2017-11-14T10:48:13.019Z,15.00
2017-11-14T10:50:41.920Z,14.50
2017-11-14T10:53:10.817Z,16.07
2017-11-14T10:55:39.733Z,16.17
2017-11-14T10:58:08.599Z,15.60
2017-11-14T11:00:39.308Z,14.50
2017-11-14T11:03:08.173Z,14.63
2017-11-14T11:05:37.187Z,15.40
2017-11-14T11:08:06.053Z,15.90
2017-11-14T11:10:35.001Z,15.50
2017-11-14T11:13:03.896Z,16.10
2017-11-14T11:15:32.764Z,16.70
2017-11-14T11:18:01.636Z,15.43
2017-11-14T11:20:30.646Z,16.20
2017-11-14T11:22:59.611Z,17.30
2017-11-14T11:25:28.520Z,18.17
2017-11-14T11:27:57.430Z,22.60
2017-11-14T11:30:26.345Z,41.23
2017-11-14T11:32:55.263Z,22.90
2017-11-14T11:35:24.151Z,18.90
2017-11-14T11:37:53.023Z,19.70
2017-11-14T11:40:21.908Z,17.90
2017-11-14T11:42:50.796Z,19.03
2017-11-14T11:45:19.710Z,16.87
2017-11-14T11:47:48.583Z,20.53
2017-11-14T11:50:17.512Z,17.57
2017-11-14T11:52:46.387Z,17.77
2017-11-14T11:55:15.367Z,19.27
2017-11-14T11:57:44.248Z,16.30
2017-11-14T12:00:13.160Z,14.80
2017-11-14T12:02:42.112Z,15.23
2017-11-14T12:05:11.000Z,15.27
2017-11-14T12:07:39.843Z,12.80
2017-11-14T12:10:08.716Z,13.10
2017-11-14T12:12:37.592Z,17.20
2017-11-14T12:15:06.471Z,14.43
2017-11-14T12:17:35.338Z,13.90
2017-11-14T12:20:04.223Z,12.93
2017-11-14T12:22:33.079Z,13.43
2017-11-14T12:25:01.960Z,14.57
2017-11-14T12:27:30.836Z,13.33
2017-11-14T12:29:59.709Z,15.20
2017-11-14T12:32:28.579Z,14.90
2017-11-14T12:34:57.456Z,16.43
2017-11-14T12:37:26.328Z,16.77
2017-11-14T12:39:55.406Z,16.47
2017-11-14T12:42:24.280Z,15.60
2017-11-14T12:44:53.214Z,79.13
2017-11-14T12:47:22.105Z,15.97
2017-11-14T12:49:50.979Z,15.33
2017-11-14T12:52:19.873Z,14.20
2017-11-14T12:54:48.763Z,15.03
2017-11-14T12:57:17.701Z,14.73
2017-11-14T12:59:46.595Z,15.07
2017-11-14T13:02:15.583Z,14.47
2017-11-14T13:04:44.575Z,13.53
2017-11-14T13:07:13.463Z,12.13
2017-11-14T13:09:42.397Z,13.87
2017-11-14T13:12:11.259Z,14.73
2017-11-14T13:14:40.165Z,14.13
2017-11-14T13:17:09.023Z,13.03
2017-11-14T13:19:37.981Z,14.07
2017-11-14T13:22:06.862Z,14.60
2017-11-14T13:24:35.724Z,14.07
2017-11-14T13:27:04.598Z,16.30
2017-11-14T13:29:33.454Z,18.27
2017-11-14T13:32:02.324Z,18.87
2017-11-14T13:34:31.184Z,14.87
2017-11-14T13:37:00.060Z,14.10
2017-11-14T13:39:28.925Z,15.80
2017-11-14T13:41:57.794Z,14.63
2017-11-14T13:44:26.663Z,17.37
2017-11-14T13:46:55.593Z,15.23
2017-11-14T13:49:24.463Z,16.60
2017-11-14T13:51:53.352Z,14.47
2017-11-14T13:54:22.217Z,15.80
2017-11-14T13:56:51.264Z,16.07
2017-11-14T13:59:20.135Z,14.87
2017-11-14T14:01:49.006Z,15.37
2017-11-14T14:04:17.886Z,15.60
2017-11-14T14:06:46.781Z,16.33
2017-11-14T14:09:15.671Z,15.67
2017-11-14T14:11:44.524Z,14.83
2017-11-14T14:14:13.399Z,14.37
2017-11-14T14:16:42.281Z,15.17
2017-11-14T14:19:11.161Z,17.03
2017-11-14T14:21:40.024Z,15.20
2017-11-14T14:24:08.896Z,14.70
2017-11-14T14:26:37.762Z,16.17
2017-11-14T14:29:06.637Z,15.60
2017-11-14T14:31:35.505Z,13.30
2017-11-14T14:34:04.391Z,12.73
2017-11-14T14:36:33.253Z,16.00
2017-11-14T14:39:02.193Z,16.13
2017-11-14T14:41:31.067Z,15.77
2017-11-14T14:44:00.672Z,16.53
2017-11-14T14:46:29.546Z,15.80
2017-11-14T14:48:58.404Z,14.47
2017-11-14T14:51:27.274Z,16.13
2017-11-14T14:53:56.144Z,16.17
2017-11-14T14:56:25.031Z,16.53
2017-11-14T14:58:53.955Z,16.07
2017-11-14T15:01:23.373Z,18.30
2017-11-14T15:03:52.255Z,17.70
2017-11-14T15:06:21.107Z,18.37
2017-11-14T15:08:49.979Z,15.83
2017-11-14T15:11:18.876Z,16.43
2017-11-14T15:13:47.766Z,15.30
2017-11-14T15:16:16.650Z,16.23
2017-11-14T15:18:45.536Z,16.37
2017-11-14T15:21:14.395Z,17.57
2017-11-14T15:23:43.275Z,15.70
2017-11-14T15:26:12.143Z,17.30
2017-11-14T15:28:41.035Z,17.10
2017-11-14T15:31:09.926Z,18.70
2017-11-14T15:33:38.818Z,18.80
2017-11-14T15:36:07.700Z,18.87
2017-11-14T15:38:36.602Z,17.40
2017-11-14T15:41:05.472Z,17.70
2017-11-14T15:43:34.323Z,15.90
2017-11-14T15:46:03.195Z,16.40
2017-11-14T15:48:32.068Z,17.50
2017-11-14T15:51:00.940Z,19.40
2017-11-14T15:53:29.811Z,17.80
2017-11-14T15:55:58.723Z,18.53
2017-11-14T15:58:27.608Z,17.37
2017-11-14T16:00:56.492Z,17.40
2017-11-14T16:03:25.356Z,18.57
2017-11-14T16:05:54.235Z,19.17
2017-11-14T16:08:23.144Z,15.83
2017-11-14T16:10:52.061Z,17.53
2017-11-14T16:13:21.080Z,18.07
2017-11-14T16:15:49.967Z,17.87
2017-11-14T16:18:18.869Z,18.47
2017-11-14T16:20:47.749Z,18.23
2017-11-14T16:23:16.637Z,19.20
2017-11-14T16:25:45.543Z,18.27
2017-11-14T16:28:14.416Z,18.50
2017-11-14T16:30:43.514Z,17.70
2017-11-14T16:33:12.640Z,17.77
2017-11-14T16:35:41.547Z,18.17
2017-11-14T16:38:10.416Z,18.00
2017-11-14T16:40:39.321Z,17.83
2017-11-14T16:43:08.191Z,18.43
2017-11-14T16:45:37.106Z,17.87
2017-11-14T16:48:05.975Z,19.23
2017-11-14T16:50:35.070Z,17.83
2017-11-14T16:53:03.956Z,19.70
2017-11-14T16:55:32.826Z,20.53
2017-11-14T16:58:01.730Z,17.97
2017-11-14T17:00:30.693Z,19.13
2017-11-14T17:02:59.550Z,20.37
2017-11-14T17:05:28.453Z,20.13
2017-11-14T17:07:57.344Z,18.20
2017-11-14T17:10:26.226Z,19.73
2017-11-14T17:12:55.132Z,19.57
2017-11-14T17:15:24.003Z,21.83
2017-11-14T17:17:52.893Z,21.03
2017-11-14T17:20:21.912Z,21.67
2017-11-14T17:22:50.859Z,19.10
2017-11-14T17:25:19.726Z,19.80
2017-11-14T17:27:48.623Z,18.60
2017-11-14T17:30:17.497Z,19.23
2017-11-14T17:32:46.388Z,19.90
2017-11-14T17:35:15.260Z,20.50
2017-11-14T17:37:44.174Z,19.90
2017-11-14T17:40:13.040Z,19.10
2017-11-14T17:42:41.904Z,18.33
2017-11-14T17:45:10.827Z,19.30
2017-11-14T17:47:39.685Z,20.03
2017-11-14T17:50:08.589Z,20.17
2017-11-14T17:52:37.461Z,19.40
2017-11-14T17:55:06.336Z,20.07
2017-11-14T17:57:35.198Z,19.47
2017-11-14T18:00:04.089Z,17.37
2017-11-14T18:02:32.955Z,20.40
2017-11-14T18:05:01.835Z,21.07
2017-11-14T18:07:30.706Z,20.33
2017-11-14T18:09:59.662Z,20.93
2017-11-14T18:12:28.515Z,22.17
2017-11-14T18:14:57.392Z,21.77
2017-11-14T18:17:26.272Z,22.27
2017-11-14T18:19:55.143Z,23.13
2017-11-14T18:22:24.027Z,22.00
2017-11-14T18:24:52.894Z,25.87
2017-11-14T18:27:21.780Z,28.37
2017-11-14T18:29:50.676Z,26.80
2017-11-14T18:32:19.554Z,23.27
2017-11-14T18:34:48.419Z,24.47
2017-11-14T18:37:17.330Z,23.67
2017-11-14T18:39:46.218Z,22.67
2017-11-14T18:42:15.095Z,26.50
2017-11-14T18:44:43.997Z,26.73
2017-11-14T18:47:12.890Z,25.10
2017-11-14T18:49:41.829Z,27.00
2017-11-14T18:52:10.721Z,26.23
2017-11-14T18:54:39.623Z,26.77
2017-11-14T18:57:08.485Z,30.53
2017-11-14T18:59:38.103Z,30.47
2017-11-14T19:02:06.992Z,28.97
2017-11-14T19:04:35.866Z,29.40
2017-11-14T19:07:04.754Z,30.17
2017-11-14T19:09:33.614Z,30.13
2017-11-14T19:12:02.491Z,28.23
2017-11-14T19:14:31.369Z,28.17
2017-11-14T19:17:00.235Z,27.33
2017-11-14T19:19:29.086Z,27.37
2017-11-14T19:21:57.951Z,27.73
2017-11-14T19:24:26.816Z,28.67
2017-11-14T19:26:55.685Z,27.57
2017-11-14T19:29:24.551Z,24.20
2017-11-14T19:31:53.500Z,25.97
2017-11-14T19:34:22.372Z,26.67
2017-11-14T19:36:51.427Z,36.00
2017-11-14T19:39:20.284Z,29.03
2017-11-14T19:41:49.152Z,30.80
2017-11-14T19:44:18.020Z,28.03
2017-11-14T19:46:46.904Z,28.50
2017-11-14T19:49:15.773Z,27.17
2017-11-14T19:51:44.660Z,25.40
2017-11-14T19:54:13.756Z,27.23
2017-11-14T19:56:42.640Z,25.13
2017-11-14T19:59:11.489Z,24.30
2017-11-14T20:01:40.355Z,27.00
2017-11-14T20:04:09.241Z,23.70
2017-11-14T20:06:38.110Z,24.87
2017-11-14T20:09:06.968Z,25.17
2017-11-14T20:11:35.855Z,27.53
2017-11-14T20:14:04.734Z,51.13
2017-11-14T20:16:33.614Z,25.00
2017-11-14T20:19:02.494Z,52.10
2017-11-14T20:21:31.359Z,29.30
2017-11-14T20:24:01.137Z,27.08
2017-11-14T20:26:30.002Z,25.97
2017-11-14T20:28:58.895Z,25.00
2017-11-14T20:31:27.742Z,26.87
2017-11-14T20:33:56.614Z,26.10
2017-11-14T20:36:25.498Z,25.43
2017-11-14T20:38:54.388Z,25.40
2017-11-14T20:41:23.272Z,23.10
2017-11-14T20:43:52.131Z,28.33
2017-11-14T20:46:21.020Z,33.10
2017-11-14T20:48:49.891Z,28.10
2017-11-14T20:51:18.816Z,25.80
2017-11-14T20:53:47.678Z,25.87
2017-11-14T20:56:16.805Z,26.47
2017-11-14T20:58:45.700Z,26.30
2017-11-14T21:01:14.556Z,24.97
2017-11-14T21:03:43.435Z,26.20
2017-11-14T21:06:12.294Z,25.20
2017-11-14T21:08:41.167Z,25.80
2017-11-14T21:11:10.019Z,23.20
2017-11-14T21:13:38.905Z,26.47
2017-11-14T21:16:07.805Z,25.00
2017-11-14T21:18:36.711Z,27.50
2017-11-14T21:21:05.617Z,25.43
2017-11-14T21:23:34.484Z,25.27
2017-11-14T21:26:03.372Z,23.77
2017-11-14T21:28:32.318Z,25.27
2017-11-14T21:31:01.207Z,22.93
2017-11-14T21:33:30.108Z,26.33
2017-11-14T21:35:59.031Z,23.60
2017-11-14T21:38:27.880Z,24.40
2017-11-14T21:40:56.759Z,25.20
2017-11-14T21:43:25.622Z,24.83
2017-11-14T21:45:54.505Z,25.10
2017-11-14T21:48:23.365Z,25.23
2017-11-14T21:50:52.235Z,24.53
2017-11-14T21:53:21.146Z,23.73
2017-11-14T21:55:50.091Z,25.67
2017-11-14T21:58:18.967Z,23.67
2017-11-14T22:00:47.823Z,24.37
2017-11-14T22:03:16.690Z,24.70
2017-11-14T22:05:45.548Z,22.77
2017-11-14T22:08:14.425Z,24.90
2017-11-14T22:10:43.278Z,24.50
2017-11-14T22:13:12.176Z,29.10
2017-11-14T22:15:41.028Z,26.33
2017-11-14T22:18:09.939Z,23.57
2017-11-14T22:20:38.805Z,28.07
2017-11-14T22:23:07.671Z,27.40
2017-11-14T22:25:36.549Z,26.37
2017-11-14T22:28:05.411Z,22.40
2017-11-14T22:30:34.275Z,30.77
2017-11-14T22:33:03.153Z,27.93
2017-11-14T22:35:32.040Z,24.13
2017-11-14T22:38:00.916Z,24.70
2017-11-14T22:40:29.792Z,24.37
2017-11-14T22:42:58.679Z,25.00
2017-11-14T22:45:27.563Z,25.23
2017-11-14T22:47:56.447Z,25.03
2017-11-14T22:50:25.300Z,24.83
2017-11-14T22:52:54.316Z,28.10
2017-11-14T22:55:23.180Z,26.73
2017-11-14T22:57:52.127Z,27.47
2017-11-14T23:00:25.818Z,25.50
2017-11-14T23:02:54.684Z,25.80
2017-11-14T23:05:23.544Z,51.87
2017-11-14T23:07:52.413Z,29.90
2017-11-14T23:10:21.279Z,27.07
2017-11-14T23:12:50.134Z,26.17
2017-11-14T23:15:19.018Z,31.23
2017-11-14T23:17:47.908Z,27.90
2017-11-14T23:20:16.786Z,27.83
2017-11-14T23:22:45.635Z,26.63
2017-11-14T23:25:14.511Z,26.80
2017-11-14T23:27:43.369Z,27.53
2017-11-14T23:30:12.282Z,27.17
2017-11-14T23:32:41.150Z,27.43
2017-11-14T23:35:10.019Z,39.77
2017-11-14T23:37:38.899Z,26.17
2017-11-14T23:40:07.764Z,26.43
2017-11-14T23:42:36.640Z,27.13
2017-11-14T23:45:05.520Z,26.87
2017-11-14T23:47:34.409Z,26.30
2017-11-14T23:50:03.299Z,27.43
2017-11-14T23:52:32.192Z,27.87
2017-11-14T23:55:01.072Z,28.07
2017-11-14T23:57:29.960Z,28.67
2017-11-14T23:59:58.841Z,27.17
